• Join FlightAware (Why Join?)
  • Login
  • US Flag 
10:22PM EDT


 

Airport Tracker/Info


-or-


 

Live Flight TrackerFlight Track Log ✈ ASA125 ✈ 22-May-2013 ✈ KSEA - PAFA / FAI

Flight Track Log - Related Links

Times and Time Zones

All times are in EDT time to prevent confusion due to time zone crossing. See the ASA125 flight status page for this flight to view local times or setup timezone preferences in your user account.

Time Position Orientation Groundspeed Altitude Reporting Facility
EDT Latitude Longitude Course Direction KTS MPH feet Rate Location/Type
02:11AM 47.4258 -122.3089 180° South 171 197 1,500  Level Seattle Center
02:12AM 47.3617 -122.3094 180° South 204 235 3,600 1,920 Climbing Seattle Center
02:13AM 47.3117 -122.3672 218° Southwest 265 305 5,800 1,800 Climbing Seattle Center
02:14AM 47.3197 -122.4767 276° West 281 323 7,300 2,100 Climbing Seattle Center
02:15AM 47.3717 -122.5631 312° West 282 325 10,100 2,280 Climbing Seattle Center
02:16AM 47.4378 -122.6472 319° Northwest 313 360 11,900 1,980 Climbing Seattle Center
02:17AM 47.5175 -122.7506 319° Northwest 350 403 14,100 2,100 Climbing Seattle Center
02:18AM 47.5803 -122.8328 319° Northwest 373 429 16,200 2,640 Climbing Seattle Center
02:19AM 47.6539 -122.9389 316° Northwest 371 427 19,500 2,760 Climbing Seattle Center
02:20AM 47.7183 -123.0917 302° West 368 423 21,800 1,860 Climbing Seattle Center
02:21AM 47.7750 -123.2267 302° West 380 437 23,300 1,560 Climbing Seattle Center
02:22AM 47.8339 -123.3667 302° West 397 457 25,000 1,140 Climbing Seattle Center
02:23AM 47.9050 -123.5003 308° West 415 478 25,600 660 Climbing Seattle Center
02:24AM 48.0044 -123.5986 327° Northwest 430 495 26,400 840 Climbing Seattle Center
02:25AM 48.1111 -123.7025 327° Northwest 450 518 27,300 900 Climbing Seattle Center
02:26AM 48.2200 -123.8094 327° Northwest 468 539 28,200 960 Climbing Seattle Center
02:27AM 48.3314 -123.9169 327° Northwest 479 551 29,300 1,200 Climbing Seattle Center
02:28AM 48.3833 -123.9833 320° Northwest 480 552 30,100 1,380 Climbing Vancouver Center
02:29AM 48.4833 -124.0833 326° Northwest 480 552 31,500 1,380 Climbing Vancouver Center
02:30AM 48.6000 -124.2000 327° Northwest 470 541 32,900 1,500 Climbing Vancouver Center
02:31AM 48.7000 -124.3000 327° Northwest 460 529 34,500 1,200 Climbing Vancouver Center
02:32AM 48.8000 -124.4000 327° Northwest 450 518 35,400 660 Climbing Vancouver Center
02:33AM 48.9167 -124.5167 327° Northwest 450 518 35,900 300 Climbing Vancouver Center
02:34AM 49.0167 -124.6167 327° Northwest 450 518 36,000  Climbing Vancouver Center
02:35AM 49.1167 -124.7500 319° Northwest 450 518 36,000  Level Vancouver Center
02:36AM 49.2167 -124.8500 327° Northwest 450 518 36,000  Level Vancouver Center
02:37AM 49.3333 -124.9500 331° Northwest 450 518 36,000  Level Vancouver Center
02:38AM 49.4333 -125.0500 327° Northwest 450 518 36,000  Level Vancouver Center
02:39AM 49.5333 -125.1667 323° Northwest 440 506 36,000  Level Vancouver Center
02:40AM 49.6333 -125.2667 327° Northwest 440 506 36,000  Level Vancouver Center
02:41AM 49.7333 -125.3667 327° Northwest 440 506 36,000  Level Vancouver Center
02:42AM 49.8500 -125.4833 327° Northwest 440 506 36,000  Level Vancouver Center
02:43AM 49.9500 -125.5833 327° Northwest 440 506 36,000  Level Vancouver Center
02:44AM 50.0333 -125.7000 318° Northwest 440 506 36,000  Level Vancouver Center
02:45AM 50.1333 -125.8000 327° Northwest 440 506 36,000  Level Vancouver Center
02:46AM 50.2333 -125.9167 323° Northwest 440 506 36,000  Level Vancouver Center
02:47AM 50.3333 -126.0167 327° Northwest 440 506 36,000  Level Vancouver Center
02:48AM 50.4500 -126.1333 328° Northwest 440 506 36,000  Level Vancouver Center
02:49AM 50.5500 -126.2500 323° Northwest 450 518 36,000  Level Vancouver Center
02:50AM 50.6500 -126.3500 328° Northwest 450 518 36,000  Level Vancouver Center
02:51AM 50.7500 -126.4667 324° Northwest 450 518 36,000  Level Vancouver Center
02:52AM 50.8500 -126.6000 320° Northwest 460 529 36,000  Level Vancouver Center
02:53AM 50.9500 -126.7167 324° Northwest 460 529 36,000  Level Vancouver Center
02:54AM 51.0667 -126.8333 328° Northwest 460 529 36,000  Level Vancouver Center
02:55AM 51.1667 -126.9333 328° Northwest 450 518 36,000  Level Vancouver Center
02:56AM 51.2667 -127.0500 324° Northwest 450 518 36,000  Level Vancouver Center
02:57AM 51.3667 -127.1667 324° Northwest 460 529 36,000  Level Vancouver Center
02:58AM 51.4667 -127.3167 317° Northwest 460 529 36,000  Level Vancouver Center
02:59AM 51.5667 -127.4333 324° Northwest 460 529 36,000  Level Vancouver Center
03:00AM 51.6667 -127.5333 328° Northwest 460 529 36,000  Level Vancouver Center
03:01AM 51.7833 -127.6500 328° Northwest 450 518 36,000  Level Vancouver Center
03:02AM 51.8833 -127.7667 324° Northwest 450 518 36,000  Level Vancouver Center
03:03AM 51.9833 -127.9000 321° Northwest 450 518 36,000  Level Vancouver Center
03:04AM 52.0833 -128.0167 324° Northwest 450 518 36,000  Level Vancouver Center
03:05AM 52.1833 -128.1500 321° Northwest 450 518 36,000  Level Vancouver Center
03:06AM 52.3000 -128.2500 332° Northwest 450 518 36,000  Level Vancouver Center
03:07AM 52.3833 -128.3667 320° Northwest 440 506 36,000  Level Vancouver Center
03:08AM 52.4833 -128.4667 329° Northwest 440 506 36,000  Level Vancouver Center
03:09AM 52.5833 -128.5833 325° Northwest 440 506 36,000  Level Vancouver Center
03:10AM 52.7000 -128.7000 329° Northwest 440 506 36,000  Level Vancouver Center
03:11AM 52.8000 -128.8333 321° Northwest 450 518 36,000  Level Vancouver Center
03:12AM 52.9000 -128.9167 333° Northwest 450 518 36,000  Level Vancouver Center
03:13AM 53.0167 -129.0500 326° Northwest 450 518 36,000  Level Vancouver Center
03:14AM 53.1167 -129.1667 325° Northwest 450 518 36,000  Level Vancouver Center
03:15AM 53.2000 -129.2667 324° Northwest 440 506 36,000  Level Vancouver Center
03:16AM 53.3167 -129.3833 329° Northwest 450 518 36,000  Level Vancouver Center
03:17AM 53.4167 -129.5167 322° Northwest 450 518 36,000  Level Vancouver Center
03:18AM 53.5167 -129.6333 325° Northwest 450 518 36,000  Level Vancouver Center
03:19AM 53.6167 -129.7333 329° Northwest 450 518 36,000  Level Vancouver Center
03:20AM 53.7333 -129.8667 326° Northwest 450 518 36,000  Level Vancouver Center
03:21AM 53.8167 -130.0000 317° Northwest 450 518 36,000  Level Vancouver Center
03:22AM 53.9333 -130.1167 330° Northwest 450 518 36,000  Level Vancouver Center
03:23AM 54.0333 -130.2167 330° Northwest 450 518 36,000  Level Vancouver Center
03:24AM 54.1333 -130.3500 322° Northwest 450 518 36,000  Level Vancouver Center
03:25AM 54.2333 -130.4833 322° Northwest 450 518 36,000  Level Vancouver Center
03:26AM 54.3333 -130.5833 330° Northwest 450 518 36,000  Level Vancouver Center
03:27AM 54.4333 -130.7167 322° Northwest 450 518 36,000  Level Vancouver Center
03:28AM 54.5333 -130.8500 322° Northwest 460 529 36,000  Level Vancouver Center
03:29AM 54.6333 -130.9833 322° Northwest 450 518 36,000  Level Vancouver Center
03:29AM 54.7167 -131.0167 347° North 460 529 36,000  Level Anchorage Center
03:30AM 54.8167 -131.1500 322° Northwest 460 529 36,000  Level Anchorage Center
03:31AM 54.8667 -131.2167 323° Northwest 460 529 36,000  Level Vancouver Center
03:31AM 54.9167 -131.2667 330° Northwest 460 529 36,000  Level Anchorage Center
03:32AM 55.0333 -131.4000 327° Northwest 460 529 36,000  Level Anchorage Center
03:33AM 55.1333 -131.5333 323° Northwest 460 529 36,000  Level Anchorage Center
03:34AM 55.2333 -131.6667 323° Northwest 460 529 36,000  Level Anchorage Center
03:35AM 55.3333 -131.8000 323° Northwest 460 529 36,000  Level Anchorage Center
03:36AM 55.4500 -131.9333 327° Northwest 460 529 36,000  Level Anchorage Center
03:37AM 55.5333 -132.0500 322° Northwest 450 518 36,000  Level Anchorage Center
03:38AM 55.6500 -132.2000 324° Northwest 460 529 36,000  Level Anchorage Center
03:39AM 55.7500 -132.3167 327° Northwest 460 529 36,000  Level Anchorage Center
03:40AM 55.8667 -132.4333 331° Northwest 460 529 36,000  Level Anchorage Center
03:41AM 55.9667 -132.5500 327° Northwest 460 529 36,000  Level Anchorage Center
03:42AM 56.0833 -132.6833 327° Northwest 460 529 36,000  Level Anchorage Center
03:43AM 56.1833 -132.8000 327° Northwest 460 529 36,000  Level Anchorage Center
03:44AM 56.3000 -132.9333 328° Northwest 460 529 36,000  Level Anchorage Center
03:45AM 56.4000 -133.0500 327° Northwest 460 529 36,000  Level Anchorage Center
03:46AM 56.5000 -133.1833 324° Northwest 460 529 36,000  Level Anchorage Center
03:47AM 56.6167 -133.3167 328° Northwest 450 518 36,000  Level Anchorage Center
03:48AM 56.7167 -133.4333 327° Northwest 470 541 36,000  Level Anchorage Center
03:49AM 56.8333 -133.5667 328° Northwest 460 529 36,000  Level Anchorage Center
03:50AM 56.9333 -133.6833 328° Northwest 460 529 36,000  Level Anchorage Center
03:51AM 57.0333 -133.8167 324° Northwest 460 529 36,000  Level Anchorage Center
03:52AM 57.1500 -133.9500 328° Northwest 460 529 36,000  Level Anchorage Center
03:53AM 57.2500 -134.0833 324° Northwest 460 529 36,000  Level Anchorage Center
03:54AM 57.3500 -134.2167 324° Northwest 460 529 36,000  Level Anchorage Center
03:55AM 57.4667 -134.3333 332° Northwest 450 518 36,000  Level Anchorage Center
03:56AM 57.5667 -134.4667 324° Northwest 450 518 36,000  Level Anchorage Center
03:57AM 57.6667 -134.6000 325° Northwest 450 518 36,000  Level Anchorage Center
03:58AM 57.7667 -134.7333 325° Northwest 450 518 36,000  Level Anchorage Center
03:59AM 57.8833 -134.8667 329° Northwest 450 518 36,000  Level Anchorage Center
04:00AM 57.9833 -135.0000 325° Northwest 450 518 36,000  Level Anchorage Center
04:01AM 58.0833 -135.1333 325° Northwest 450 518 36,000  Level Anchorage Center
04:02AM 58.2000 -135.2667 329° Northwest 450 518 36,000  Level Anchorage Center
04:03AM 58.3000 -135.3833 329° Northwest 450 518 36,000  Level Anchorage Center
04:04AM 58.4167 -135.5000 332° Northwest 450 518 36,000  Level Anchorage Center
04:05AM 58.5167 -135.6333 325° Northwest 450 518 36,000  Level Anchorage Center
04:06AM 58.6167 -135.7333 333° Northwest 440 506 36,000  Level Anchorage Center
04:07AM 58.7333 -135.8667 329° Northwest 440 506 36,000  Level Anchorage Center
04:08AM 58.8333 -135.9833 329° Northwest 450 518 36,000  Level Anchorage Center
04:09AM 58.9333 -136.0833 333° Northwest 450 518 36,000  Level Anchorage Center
04:10AM 59.0500 -136.2000 333° Northwest 450 518 36,000  Level Anchorage Center
04:11AM 59.1500 -136.3167 329° Northwest 450 518 36,000  Level Anchorage Center
04:12AM 59.2667 -136.4500 330° Northwest 440 506 36,000  Level Anchorage Center
04:13AM 59.3667 -136.5667 329° Northwest 440 506 36,000  Level Anchorage Center
04:14AM 59.4833 -136.6833 333° Northwest 440 506 36,000  Level Anchorage Center
04:15AM 59.5833 -136.8167 326° Northwest 440 506 36,000  Level Anchorage Center
04:16AM 59.6833 -136.9333 330° Northwest 440 506 36,000  Level Anchorage Center
04:17AM 59.8167 -137.0833 331° Northwest 440 506 36,000  Level Anchorage Center
04:18AM 59.9167 -137.2000 330° Northwest 430 495 36,000  Level Anchorage Center
04:19AM 60.0167 -137.3333 326° Northwest 440 506 36,000  Level Anchorage Center
04:20AM 60.1167 -137.4500 330° Northwest 440 506 36,000  Level Anchorage Center
04:21AM 60.2333 -137.5833 330° Northwest 440 506 36,000  Level Anchorage Center
04:22AM 60.3333 -137.7167 327° Northwest 440 506 36,000  Level Anchorage Center
04:23AM 60.4333 -137.8333 330° Northwest 440 506 36,000  Level Anchorage Center
04:24AM 60.5500 -137.9667 331° Northwest 440 506 36,000  Level Anchorage Center
04:25AM 60.6500 -138.1000 327° Northwest 450 518 36,000  Level Anchorage Center
04:26AM 60.7500 -138.2333 327° Northwest 440 506 36,000  Level Anchorage Center
04:27AM 60.8667 -138.3667 331° Northwest 440 506 36,000  Level Anchorage Center
04:28AM 60.9667 -138.5000 327° Northwest 450 518 36,000  Level Anchorage Center
04:29AM 61.0667 -138.6500 324° Northwest 450 518 36,000  Level Anchorage Center
04:30AM 61.1833 -138.7833 331° Northwest 450 518 36,000  Level Anchorage Center
04:31AM 61.2833 -138.9167 327° Northwest 440 506 36,000  Level Anchorage Center
04:32AM 61.3833 -139.0667 324° Northwest 440 506 36,000  Level Anchorage Center
04:33AM 61.4833 -139.2167 324° Northwest 440 506 36,000  Level Anchorage Center
04:34AM 61.5667 -139.3833 316° Northwest 440 506 36,000  Level Anchorage Center
04:37AM 61.6688 -139.5729 319° Northwest  Level FlightAware Approximate
04:37AM 61.8333 -139.8500 319° Northwest 440 506 36,000  Level Anchorage Center
04:39AM 61.9480 -140.0744 317° Northwest  Level FlightAware Approximate
04:46AM 62.5648 -141.2620 322° Northwest  Level FlightAware Approximate
04:46AM 62.6167 -141.3000 308° West 450 518 36,000  Level Anchorage Center
04:47AM 62.6579 -141.4212 322° Northwest  Level FlightAware Approximate
04:47AM 62.7167 -141.4667 323° Northwest 440 506 36,000  Level Anchorage Center
04:48AM 62.7508 -141.5813 322° Northwest  Level FlightAware Approximate
04:48AM 62.8167 -141.6333 323° Northwest 440 506 36,000  Level Anchorage Center
04:49AM 62.8435 -141.7425 322° Northwest  Level FlightAware Approximate
04:49AM 62.9000 -141.8167 315° West 440 506 36,000  Level Anchorage Center
04:50AM 62.9355 -141.9060 308° West  Level FlightAware Approximate
04:50AM 62.9833 -142.0167 313° West 430 495 36,000  Level Anchorage Center
04:51AM 63.0080 -142.1120 308° West  Level FlightAware Approximate
04:51AM 63.0500 -142.2333 304° West 430 495 36,000  Level Anchorage Center
04:52AM 63.1333 -142.4500 310° West 440 506 36,000  Level Anchorage Center
04:53AM 63.2000 -142.6667 304° West 440 506 36,000  Level Anchorage Center
04:54AM 63.2667 -142.9000 302° West 440 506 36,000  Level Anchorage Center
04:55AM 63.3500 -143.1167 311° West 450 518 36,000  Level Anchorage Center
04:56AM 63.4167 -143.3333 305° West 440 506 36,000  Level Anchorage Center
04:57AM 63.5000 -143.5500 311° West 450 518 36,000  Level Anchorage Center
04:58AM 63.5667 -143.7833 303° West 450 518 36,000  Level Anchorage Center
04:59AM 63.6333 -144.0000 305° West 440 506 36,000  Level Anchorage Center
05:00AM 63.7000 -144.2333 303° West 440 506 36,000  Level Anchorage Center
05:01AM 63.7833 -144.4667 309° West 440 506 36,000  Level Anchorage Center
05:02AM 63.8500 -144.6833 305° West 440 506 36,000 -480 Level Anchorage Center
05:03AM 63.9167 -144.9167 303° West 430 495 35,100 -960 Descending Anchorage Center
05:04AM 63.9833 -145.1500 303° West 430 495 34,100 -1,740 Descending Anchorage Center
05:05AM 64.0500 -145.3667 305° West 430 495 31,600 -2,700 Descending Anchorage Center
05:06AM 64.1333 -145.6167 307° West 430 495 28,800 -2,580 Descending Anchorage Center
05:07AM 64.1833 -145.8333 298° West 430 495 26,500 -2,400 Descending Anchorage Center
05:08AM 64.2500 -146.0667 303° West 420 483 24,000 -2,520 Descending Anchorage Center
05:10AM 64.3829 -146.4963 303° West  Level FlightAware Approximate
05:17AM 64.6829 -147.9102 10° North  Level FlightAware Approximate
05:18AM 64.7985 -147.8510 16° North  Level FlightAware Approximate
05:19AM 64.8000 -147.8500 16° North  Level FlightAware Approximate
05:20AM 64.8151 -147.8564 16° North  Level Estimated
05:21AM 64.8151 -147.8564 16° North  Level Estimated
05:22AM 64.8151 -147.8564 16° North  Level Estimated
05:23AM 64.8151 -147.8564 16° North  Level Estimated
05:24AM 64.8151 -147.8564 16° North  Level Estimated
05:25AM 64.8151 -147.8564 16° North  Level Estimated
05:26AM 64.8151 -147.8564 16° North  Level Estimated
05:27AM 64.8151 -147.8564 16° North  Level Estimated
05:28AM 64.8151 -147.8564 16° North  Level Estimated
05:29AM 64.8151 -147.8564 16° North  Level Estimated
05:30AM 64.8151 -147.8564 16° North  Level Estimated
05:31AM 64.8151 -147.8564 16° North  Level Estimated
05:32AM 64.8151 -147.8564 16° North  Level Estimated
05:33AM 64.8151 -147.8564 16° North  Level Estimated
05:34AM 64.8151 -147.8564 16° North  Level Estimated